createdAt,value
2019-05-26T00:00:26.875Z,75.46
2019-05-26T00:02:59.901Z,75.72
2019-05-26T00:05:32.522Z,75.44
2019-05-26T00:08:05.107Z,76.19
2019-05-26T00:10:37.517Z,76.98
2019-05-26T00:13:09.934Z,77.83
2019-05-26T00:15:42.740Z,78.06
2019-05-26T00:18:15.624Z,78.09
2019-05-26T00:20:48.183Z,77.52
2019-05-26T00:23:20.897Z,76.29
2019-05-26T00:25:54.471Z,75.55
2019-05-26T00:28:26.965Z,75.40
2019-05-26T00:30:59.916Z,75.20
2019-05-26T00:33:32.376Z,76.10
2019-05-26T00:36:05.140Z,76.30
2019-05-26T00:38:38.146Z,76.90
2019-05-26T00:41:10.568Z,77.43
2019-05-26T00:43:43.282Z,78.14
2019-05-26T00:46:15.824Z,78.75
2019-05-26T00:48:49.154Z,79.08
2019-05-26T00:51:21.625Z,79.27
2019-05-26T00:53:53.515Z,79.30
2019-05-26T00:56:26.117Z,79.29
2019-05-26T00:58:59.638Z,78.81
2019-05-26T01:01:32.559Z,78.58
2019-05-26T01:04:05.311Z,78.40
2019-05-26T01:06:38.334Z,77.77
2019-05-26T01:09:11.319Z,76.28
2019-05-26T01:11:43.821Z,76.28
2019-05-26T01:14:16.329Z,76.05
2019-05-26T01:16:48.667Z,75.47
2019-05-26T01:19:21.135Z,75.00
2019-05-26T01:21:53.645Z,74.82
2019-05-26T01:24:26.783Z,74.91
2019-05-26T01:26:58.903Z,74.82
2019-05-26T01:29:31.526Z,74.68
2019-05-26T01:32:04.172Z,74.60
2019-05-26T01:34:36.614Z,74.37
2019-05-26T01:37:09.355Z,74.25
2019-05-26T01:39:42.311Z,74.00
2019-05-26T01:42:14.939Z,74.19
2019-05-26T01:44:47.651Z,74.06
2019-05-26T01:47:20.180Z,73.73
2019-05-26T01:49:52.934Z,73.96
2019-05-26T01:52:25.555Z,73.58
2019-05-26T01:54:58.047Z,73.92
2019-05-26T01:57:30.913Z,74.32
2019-05-26T02:00:03.364Z,74.98
2019-05-26T02:02:36.740Z,75.25
2019-05-26T02:05:09.391Z,75.45
2019-05-26T02:07:42.208Z,75.73
2019-05-26T02:10:15.144Z,75.78
2019-05-26T02:12:47.819Z,75.77
2019-05-26T02:15:21.242Z,75.50
2019-05-26T02:17:54.123Z,75.30
2019-05-26T02:20:27.045Z,74.87
2019-05-26T02:22:59.540Z,75.53
2019-05-26T02:25:32.092Z,76.78
2019-05-26T02:28:04.699Z,77.61
2019-05-26T02:30:37.096Z,77.65
2019-05-26T02:33:09.171Z,77.98
2019-05-26T02:35:41.654Z,78.44
2019-05-26T02:38:13.507Z,79.79
2019-05-26T02:40:46.312Z,80.32
2019-05-26T02:43:19.194Z,80.40
2019-05-26T02:45:52.037Z,81.23
2019-05-26T02:48:24.220Z,81.93
2019-05-26T02:50:57.227Z,82.32
2019-05-26T02:53:30.078Z,82.51
2019-05-26T02:56:02.862Z,82.33
2019-05-26T02:58:35.481Z,81.84
2019-05-26T03:01:08.195Z,80.71
2019-05-26T03:03:40.900Z,79.53
2019-05-26T03:06:14.468Z,78.84
2019-05-26T03:08:48.455Z,78.15
2019-05-26T03:11:21.903Z,77.12
2019-05-26T03:13:55.715Z,76.67
2019-05-26T03:16:29.975Z,76.03
2019-05-26T03:19:04.584Z,75.79
2019-05-26T03:21:38.303Z,75.36
2019-05-26T03:24:10.890Z,75.14
2019-05-26T03:26:43.662Z,75.16
2019-05-26T03:29:16.329Z,74.96
2019-05-26T03:31:49.172Z,74.74
2019-05-26T03:34:21.673Z,74.42
2019-05-26T03:36:54.205Z,74.14
2019-05-26T03:39:43.237Z,74.34
2019-05-26T03:42:00.716Z,74.20
2019-05-26T03:44:33.599Z,74.19
2019-05-26T03:47:06.357Z,74.70
2019-05-26T03:49:38.845Z,74.39
2019-05-26T03:52:12.219Z,74.56
2019-05-26T03:54:44.840Z,74.34
2019-05-26T03:57:17.619Z,73.89
2019-05-26T03:59:50.060Z,73.74
2019-05-26T04:02:22.579Z,73.57
2019-05-26T04:04:55.128Z,74.15
2019-05-26T04:07:27.975Z,73.76
2019-05-26T04:10:05.213Z,73.46
2019-05-26T04:12:34.769Z,72.54
2019-05-26T04:15:07.437Z,71.89
2019-05-26T04:17:39.948Z,71.33
2019-05-26T04:20:12.607Z,71.20
2019-05-26T04:22:45.316Z,71.09
2019-05-26T04:25:17.997Z,71.58
2019-05-26T04:27:50.446Z,71.62
2019-05-26T04:30:23.609Z,70.97
2019-05-26T04:32:56.318Z,70.97
2019-05-26T04:35:28.882Z,70.91
2019-05-26T04:38:01.458Z,70.92
2019-05-26T04:40:34.477Z,70.91
2019-05-26T04:43:07.084Z,70.58
2019-05-26T04:45:39.611Z,70.24
2019-05-26T04:48:12.165Z,69.96
2019-05-26T04:50:44.724Z,69.27
2019-05-26T04:53:17.558Z,69.09
2019-05-26T04:55:49.929Z,68.57
2019-05-26T04:58:22.671Z,69.94
2019-05-26T05:00:55.009Z,68.64
2019-05-26T05:03:28.006Z,68.31
2019-05-26T05:06:00.648Z,67.83
2019-05-26T05:08:32.901Z,67.82
2019-05-26T05:11:05.806Z,67.62
2019-05-26T05:13:38.408Z,66.63
2019-05-26T05:16:10.834Z,66.86
2019-05-26T05:18:43.370Z,66.25
2019-05-26T05:21:15.869Z,65.43
2019-05-26T05:23:48.309Z,65.42
2019-05-26T05:26:20.978Z,63.78
2019-05-26T05:28:53.357Z,63.70
2019-05-26T05:31:26.074Z,63.34
2019-05-26T05:33:58.862Z,62.91
2019-05-26T05:36:31.758Z,62.60
2019-05-26T05:39:05.115Z,63.28
2019-05-26T05:41:37.701Z,63.21
2019-05-26T05:44:10.320Z,62.92
2019-05-26T05:46:42.751Z,62.30
2019-05-26T05:49:15.465Z,60.28
2019-05-26T05:51:48.292Z,60.47
2019-05-26T05:54:20.760Z,59.64
2019-05-26T05:56:55.582Z,60.61
2019-05-26T05:59:27.701Z,58.88
2019-05-26T06:02:00.544Z,59.98
2019-05-26T06:04:33.085Z,60.69
2019-05-26T06:07:05.706Z,60.07
2019-05-26T06:09:39.321Z,59.03
2019-05-26T06:12:14.747Z,58.75
2019-05-26T06:14:47.429Z,57.16
2019-05-26T06:17:19.974Z,56.22
2019-05-26T06:19:52.555Z,56.12
2019-05-26T06:22:25.166Z,57.05
2019-05-26T06:24:57.999Z,56.54
2019-05-26T06:27:30.454Z,56.47
2019-05-26T06:30:02.878Z,57.27
2019-05-26T06:32:35.686Z,57.02
2019-05-26T06:35:08.538Z,56.59
2019-05-26T06:37:41.563Z,55.78
2019-05-26T06:40:14.600Z,56.69
2019-05-26T06:42:45.770Z,56.28
2019-05-26T06:45:18.712Z,56.16
2019-05-26T06:47:50.400Z,54.17
2019-05-26T06:50:22.833Z,54.54
2019-05-26T06:52:55.310Z,54.97
2019-05-26T06:55:29.045Z,54.04
2019-05-26T06:58:01.402Z,55.44
2019-05-26T07:00:34.054Z,54.85
2019-05-26T07:03:06.637Z,56.36
2019-05-26T07:05:42.126Z,53.69
2019-05-26T07:08:14.084Z,52.71
2019-05-26T07:10:46.450Z,52.55
2019-05-26T07:13:19.135Z,52.09
2019-05-26T07:15:51.550Z,53.29
2019-05-26T07:18:23.998Z,53.78
2019-05-26T07:20:56.851Z,52.85
2019-05-26T07:23:29.562Z,53.12
2019-05-26T07:26:02.394Z,52.62
2019-05-26T07:28:34.547Z,52.82
2019-05-26T07:31:07.179Z,51.08
2019-05-26T07:33:40.951Z,51.08
2019-05-26T07:36:13.260Z,49.39
2019-05-26T07:38:45.914Z,50.62
2019-05-26T07:41:18.497Z,51.90
2019-05-26T07:43:50.939Z,50.35
2019-05-26T07:46:23.925Z,48.56
2019-05-26T07:48:56.592Z,51.70
2019-05-26T07:51:29.100Z,49.91
2019-05-26T07:54:01.977Z,48.98
2019-05-26T07:56:34.703Z,49.68
2019-05-26T07:59:07.093Z,47.65
2019-05-26T08:01:39.963Z,48.12
2019-05-26T08:04:12.713Z,46.52
2019-05-26T08:06:45.155Z,48.22
2019-05-26T08:09:18.232Z,47.52
2019-05-26T08:11:50.543Z,46.71
2019-05-26T08:14:23.206Z,43.65
2019-05-26T08:16:55.605Z,46.88
2019-05-26T08:19:27.967Z,44.41
2019-05-26T08:22:00.760Z,44.43
2019-05-26T08:24:33.510Z,44.95
2019-05-26T08:27:06.092Z,46.36
2019-05-26T08:29:37.683Z,45.76
2019-05-26T08:32:10.279Z,44.99
2019-05-26T08:34:43.028Z,41.84
2019-05-26T08:37:15.451Z,45.37
2019-05-26T08:39:48.975Z,41.83
2019-05-26T08:42:27.369Z,42.64
2019-05-26T08:44:56.065Z,43.20
2019-05-26T08:47:28.769Z,42.87
2019-05-26T08:50:01.509Z,42.06
2019-05-26T08:52:33.499Z,41.28
2019-05-26T08:55:06.346Z,40.47
2019-05-26T08:57:37.432Z,40.66
2019-05-26T09:00:10.763Z,43.02
2019-05-26T09:02:43.544Z,41.75
2019-05-26T09:05:16.621Z,42.86
2019-05-26T09:07:49.111Z,43.18
2019-05-26T09:10:22.092Z,38.77
2019-05-26T09:13:01.255Z,39.73
2019-05-26T09:15:29.092Z,40.80
2019-05-26T09:18:01.911Z,38.93
2019-05-26T09:20:33.112Z,37.37
2019-05-26T09:23:05.996Z,35.76
2019-05-26T09:25:37.302Z,37.48
2019-05-26T09:28:10.286Z,37.30
2019-05-26T09:30:43.046Z,36.11
2019-05-26T09:33:15.705Z,35.16
2019-05-26T09:35:48.228Z,34.64
2019-05-26T09:38:20.639Z,35.29
2019-05-26T09:40:53.161Z,30.97
2019-05-26T09:43:25.772Z,30.41
2019-05-26T09:45:58.828Z,31.73
2019-05-26T09:48:31.346Z,31.24
2019-05-26T09:51:03.963Z,32.89
2019-05-26T09:53:36.378Z,27.95
2019-05-26T09:56:08.806Z,28.47
2019-05-26T09:58:41.389Z,29.57
2019-05-26T10:01:14.713Z,29.92
2019-05-26T10:03:48.484Z,33.51
2019-05-26T10:06:21.918Z,31.81
2019-05-26T10:08:54.549Z,32.01
2019-05-26T10:11:26.984Z,32.99
2019-05-26T10:13:59.469Z,31.18
2019-05-26T10:16:32.176Z,30.98
2019-05-26T10:19:05.220Z,29.03
2019-05-26T10:21:37.721Z,31.25
2019-05-26T10:24:10.784Z,30.87
2019-05-26T10:26:44.691Z,30.29
2019-05-26T10:29:17.491Z,31.46
2019-05-26T10:31:48.588Z,30.52
2019-05-26T10:34:22.263Z,31.16
2019-05-26T10:36:53.236Z,29.76
2019-05-26T10:39:25.773Z,29.55
2019-05-26T10:41:58.495Z,31.28
2019-05-26T10:44:30.006Z,28.79
2019-05-26T10:47:02.428Z,30.15
2019-05-26T10:49:34.857Z,30.75
2019-05-26T10:52:07.495Z,29.23
2019-05-26T10:54:40.391Z,29.55
2019-05-26T10:57:12.980Z,29.59
2019-05-26T10:59:45.159Z,30.85
2019-05-26T11:02:17.848Z,30.42
2019-05-26T11:04:48.975Z,29.38
2019-05-26T11:07:21.545Z,28.37
2019-05-26T11:09:53.819Z,29.54
2019-05-26T11:12:26.472Z,30.68
2019-05-26T11:14:58.873Z,33.08
2019-05-26T11:17:31.788Z,29.68
2019-05-26T11:20:04.606Z,29.15
2019-05-26T11:22:37.157Z,29.28
2019-05-26T11:25:10.097Z,29.42
2019-05-26T11:27:42.977Z,28.96
2019-05-26T11:30:17.447Z,30.42
2019-05-26T11:32:49.994Z,30.73
2019-05-26T11:35:23.041Z,28.68
2019-05-26T11:37:55.810Z,26.86
2019-05-26T11:40:28.794Z,28.08
2019-05-26T11:43:14.047Z,28.08
2019-05-26T11:45:36.069Z,26.03
2019-05-26T11:48:08.889Z,27.52
2019-05-26T11:50:41.413Z,29.06
2019-05-26T11:53:13.901Z,26.26
2019-05-26T11:55:47.029Z,26.18
2019-05-26T11:58:19.597Z,25.31
2019-05-26T12:00:53.379Z,25.55
2019-05-26T12:03:25.816Z,24.75
2019-05-26T12:05:58.471Z,25.54
2019-05-26T12:08:29.663Z,27.50
2019-05-26T12:11:02.275Z,25.45
2019-05-26T12:13:36.569Z,25.22
2019-05-26T12:16:07.789Z,26.04
2019-05-26T12:18:38.988Z,25.38
2019-05-26T12:21:11.312Z,25.10
2019-05-26T12:23:44.185Z,25.44
2019-05-26T12:26:16.908Z,25.45
2019-05-26T12:28:49.329Z,24.88
2019-05-26T12:31:21.723Z,24.29
2019-05-26T12:33:53.858Z,24.12
2019-05-26T12:36:26.043Z,24.03
2019-05-26T12:38:59.157Z,23.43
2019-05-26T12:41:34.971Z,20.46
2019-05-26T12:44:10.740Z,20.34
2019-05-26T12:49:36.942Z,19.59
2019-05-26T12:52:08.632Z,20.44
2019-05-26T12:54:40.169Z,22.01
2019-05-26T12:57:11.570Z,20.44
2019-05-26T12:59:42.919Z,21.79
2019-05-26T13:02:14.397Z,22.12
2019-05-26T13:04:45.798Z,24.37
2019-05-26T13:07:17.380Z,24.85
2019-05-26T13:09:48.723Z,22.93
2019-05-26T13:12:20.256Z,23.94
2019-05-26T13:15:04.972Z,22.32
2019-05-26T13:17:25.160Z,23.61
2019-05-26T13:19:56.595Z,24.10
2019-05-26T13:22:28.106Z,24.98
2019-05-26T13:24:59.456Z,25.44
2019-05-26T13:27:30.916Z,26.65
2019-05-26T13:30:02.552Z,27.78
2019-05-26T13:32:35.136Z,26.45
2019-05-26T13:35:07.165Z,27.40
2019-05-26T13:37:38.993Z,27.42
2019-05-26T13:40:10.641Z,27.07
2019-05-26T13:42:42.269Z,28.08
2019-05-26T13:45:22.211Z,26.76
2019-05-26T13:47:47.728Z,26.44
2019-05-26T13:50:21.035Z,27.76
2019-05-26T13:52:52.448Z,27.80
2019-05-26T13:55:24.158Z,26.45
2019-05-26T13:57:55.490Z,26.71
2019-05-26T14:00:27.155Z,26.14
2019-05-26T14:02:59.291Z,27.43
2019-05-26T14:05:31.068Z,29.09
2019-05-26T14:08:02.424Z,26.73
2019-05-26T14:10:37.975Z,27.42
2019-05-26T14:13:09.874Z,27.21
2019-05-26T14:15:41.331Z,28.43
2019-05-26T14:18:13.835Z,28.72
2019-05-26T14:20:45.846Z,29.76
2019-05-26T14:23:17.401Z,29.76
2019-05-26T14:25:48.826Z,29.78
2019-05-26T14:28:20.295Z,29.66
2019-05-26T14:30:52.029Z,30.12
2019-05-26T14:33:23.416Z,30.12
2019-05-26T14:35:54.921Z,29.02
2019-05-26T14:38:42.003Z,29.19
2019-05-26T14:40:59.661Z,29.19
2019-05-26T14:43:31.263Z,29.42
2019-05-26T14:46:02.998Z,29.47
2019-05-26T14:48:34.445Z,29.86
2019-05-26T14:51:05.953Z,29.61
2019-05-26T14:53:37.539Z,29.24
2019-05-26T14:56:08.970Z,31.15
2019-05-26T14:58:40.668Z,30.29
2019-05-26T15:01:12.114Z,30.29
2019-05-26T15:03:43.844Z,30.73
2019-05-26T15:06:15.514Z,31.37
2019-05-26T15:08:46.927Z,30.49
2019-05-26T15:11:18.482Z,31.58
2019-05-26T15:13:50.113Z,30.47
2019-05-26T15:16:21.622Z,30.09
2019-05-26T15:18:53.272Z,29.64
2019-05-26T15:21:24.760Z,30.61
2019-05-26T15:23:56.115Z,30.61
2019-05-26T15:26:27.607Z,30.89
2019-05-26T15:28:59.119Z,30.58
2019-05-26T15:31:30.356Z,30.58
2019-05-26T15:34:01.872Z,29.57
2019-05-26T15:36:33.416Z,29.91
2019-05-26T15:39:05.371Z,31.45
2019-05-26T15:41:36.938Z,33.46
2019-05-26T15:44:08.360Z,32.04
2019-05-26T15:46:39.873Z,30.74
2019-05-26T15:49:11.217Z,32.56
2019-05-26T15:51:42.520Z,33.64
2019-05-26T15:54:14.352Z,32.09
2019-05-26T15:56:46.125Z,31.05
2019-05-26T15:59:17.522Z,32.67
2019-05-26T16:01:49.268Z,32.38
2019-05-26T16:04:20.659Z,33.81
2019-05-26T16:06:52.253Z,34.20
2019-05-26T16:09:23.660Z,32.99
2019-05-26T16:11:55.394Z,34.12
2019-05-26T16:14:27.106Z,34.65
2019-05-26T16:16:58.709Z,35.59
2019-05-26T16:19:30.149Z,35.90
2019-05-26T16:22:01.618Z,36.90
2019-05-26T16:24:33.095Z,37.30
2019-05-26T16:27:18.158Z,36.96
2019-05-26T16:29:37.847Z,37.58
2019-05-26T16:32:10.293Z,36.36
2019-05-26T16:34:41.785Z,38.20
2019-05-26T16:37:13.115Z,38.17
2019-05-26T16:39:44.580Z,38.27
2019-05-26T16:42:15.924Z,39.12
2019-05-26T16:44:47.505Z,39.54
2019-05-26T16:47:19.126Z,38.54
2019-05-26T16:49:50.525Z,38.42
2019-05-26T16:52:21.938Z,38.78
2019-05-26T16:54:53.360Z,38.20
2019-05-26T16:57:24.697Z,40.32
2019-05-26T16:59:56.074Z,39.66
2019-05-26T17:02:27.483Z,39.68
2019-05-26T17:04:58.874Z,39.83
2019-05-26T17:07:30.367Z,39.68
2019-05-26T17:10:02.490Z,40.92
2019-05-26T17:12:34.142Z,41.50
2019-05-26T17:15:06.478Z,41.32
2019-05-26T17:17:38.256Z,41.70
2019-05-26T17:20:10.493Z,42.26
2019-05-26T17:22:41.990Z,41.56
2019-05-26T17:25:14.072Z,42.09
2019-05-26T17:27:45.932Z,43.06
2019-05-26T17:30:25.436Z,42.34
2019-05-26T17:32:57.471Z,42.59
2019-05-26T17:35:29.155Z,43.76
2019-05-26T17:38:00.390Z,44.17
2019-05-26T17:40:32.766Z,44.01
2019-05-26T17:43:04.244Z,43.89
2019-05-26T17:45:35.883Z,44.07
2019-05-26T17:48:07.662Z,45.04
2019-05-26T17:50:39.219Z,44.87
2019-05-26T17:53:10.647Z,44.57
2019-05-26T17:55:42.177Z,44.82
2019-05-26T17:58:13.858Z,44.75
2019-05-26T18:00:45.419Z,45.24
2019-05-26T18:03:17.320Z,45.40
2019-05-26T18:05:48.744Z,45.55
2019-05-26T18:08:20.507Z,45.98
2019-05-26T18:10:51.901Z,45.58
2019-05-26T18:13:24.732Z,46.79
2019-05-26T18:15:56.432Z,46.51
2019-05-26T18:18:27.965Z,45.69
2019-05-26T18:20:59.478Z,45.31
2019-05-26T18:23:31.910Z,46.64
2019-05-26T18:26:03.218Z,48.39
2019-05-26T18:28:34.927Z,49.22
2019-05-26T18:31:06.424Z,49.79
2019-05-26T18:33:37.870Z,49.52
2019-05-26T18:36:09.386Z,49.85
2019-05-26T18:38:40.676Z,49.21
2019-05-26T18:41:12.231Z,49.06
2019-05-26T18:43:43.937Z,49.26
2019-05-26T18:46:15.762Z,49.04
2019-05-26T18:48:47.462Z,49.86
2019-05-26T18:51:19.211Z,51.17
2019-05-26T18:53:51.536Z,51.54
2019-05-26T18:56:23.330Z,50.93
2019-05-26T18:58:54.682Z,50.87
2019-05-26T19:01:26.341Z,50.91
2019-05-26T19:03:57.788Z,49.22
2019-05-26T19:06:29.522Z,50.52
2019-05-26T19:09:01.060Z,49.54
2019-05-26T19:11:34.453Z,49.85
2019-05-26T19:14:06.370Z,50.12
2019-05-26T19:16:37.861Z,50.61
2019-05-26T19:19:09.511Z,51.42
2019-05-26T19:21:41.115Z,51.37
2019-05-26T19:24:12.591Z,51.43
2019-05-26T19:26:44.247Z,51.62
2019-05-26T19:29:15.687Z,51.08
2019-05-26T19:31:48.899Z,51.71
2019-05-26T19:34:27.865Z,51.68
2019-05-26T19:37:04.462Z,51.80
2019-05-26T19:39:37.720Z,52.36
2019-05-26T19:42:11.202Z,51.35
2019-05-26T19:44:45.150Z,52.69
2019-05-26T19:47:31.350Z,51.75
2019-05-26T19:50:14.884Z,51.50
2019-05-26T19:52:50.149Z,52.80
2019-05-26T19:55:25.617Z,51.49
2019-05-26T19:57:56.927Z,49.21
2019-05-26T20:00:28.966Z,50.84
2019-05-26T20:03:00.467Z,52.09
2019-05-26T20:05:31.859Z,51.68
2019-05-26T20:08:03.406Z,52.13
2019-05-26T20:10:35.086Z,52.14
2019-05-26T20:13:06.804Z,52.30
2019-05-26T20:15:41.293Z,53.10
2019-05-26T20:18:13.259Z,52.97
2019-05-26T20:20:44.738Z,53.39
2019-05-26T20:23:20.416Z,54.08
2019-05-26T20:25:53.932Z,54.23
2019-05-26T20:28:28.246Z,53.69
2019-05-26T20:31:04.248Z,54.62
2019-05-26T20:33:37.882Z,53.18
2019-05-26T20:36:11.193Z,52.47
2019-05-26T20:38:44.230Z,52.57
2019-05-26T20:41:16.379Z,53.45
2019-05-26T20:44:02.094Z,53.02
2019-05-26T20:46:33.971Z,52.81
2019-05-26T20:49:05.670Z,52.43
2019-05-26T20:51:37.235Z,52.57
2019-05-26T20:54:08.702Z,52.88
2019-05-26T20:56:40.257Z,53.65
2019-05-26T20:59:11.751Z,53.13
2019-05-26T21:01:43.289Z,53.38
2019-05-26T21:04:14.769Z,53.89
2019-05-26T21:06:47.785Z,53.66
2019-05-26T21:09:18.087Z,54.00
2019-05-26T21:11:49.629Z,53.83
2019-05-26T21:14:22.324Z,54.90
2019-05-26T21:16:53.751Z,54.47
2019-05-26T21:19:25.581Z,55.10
2019-05-26T21:21:57.042Z,54.94
2019-05-26T21:24:28.760Z,55.33
2019-05-26T21:27:00.167Z,55.42
2019-05-26T21:29:31.675Z,55.47
2019-05-26T21:32:03.261Z,56.09
2019-05-26T21:34:34.774Z,55.80
2019-05-26T21:37:06.694Z,56.21
2019-05-26T21:39:38.242Z,55.99
2019-05-26T21:42:09.952Z,55.24
2019-05-26T21:44:41.448Z,55.35
2019-05-26T21:47:12.771Z,56.02
2019-05-26T21:49:44.809Z,56.53
2019-05-26T21:52:16.491Z,56.14
2019-05-26T21:54:47.820Z,56.51
2019-05-26T21:57:21.506Z,56.65
2019-05-26T21:59:54.494Z,56.43
2019-05-26T22:02:27.752Z,56.75
2019-05-26T22:05:00.883Z,57.28
2019-05-26T22:07:35.111Z,57.15
2019-05-26T22:10:07.335Z,57.71
2019-05-26T22:12:40.179Z,58.61
2019-05-26T22:15:13.414Z,58.72
2019-05-26T22:17:47.296Z,59.25
2019-05-26T22:20:20.369Z,59.55
2019-05-26T22:22:50.575Z,59.44
2019-05-26T22:25:21.791Z,59.61
2019-05-26T22:27:53.474Z,59.36
2019-05-26T22:30:25.061Z,60.17
2019-05-26T22:32:56.762Z,58.16
2019-05-26T22:35:28.259Z,57.30
2019-05-26T22:37:59.711Z,58.39
2019-05-26T22:40:31.305Z,57.09
2019-05-26T22:43:02.775Z,58.24
2019-05-26T22:45:34.380Z,58.88
2019-05-26T22:48:05.974Z,59.80
2019-05-26T22:50:37.377Z,59.56
2019-05-26T22:53:08.799Z,60.42
2019-05-26T22:55:40.242Z,60.43
2019-05-26T22:58:11.804Z,60.87
2019-05-26T23:00:43.557Z,61.24
2019-05-26T23:03:15.173Z,61.27
2019-05-26T23:05:46.923Z,62.02
2019-05-26T23:08:18.347Z,61.56
2019-05-26T23:10:50.025Z,61.43
2019-05-26T23:13:21.375Z,62.15
2019-05-26T23:15:53.155Z,62.53
2019-05-26T23:18:24.492Z,63.04
2019-05-26T23:20:56.132Z,63.12
2019-05-26T23:23:27.617Z,63.03
2019-05-26T23:25:59.462Z,62.42
2019-05-26T23:28:30.926Z,63.05
2019-05-26T23:31:03.747Z,62.88
2019-05-26T23:33:35.310Z,62.84
2019-05-26T23:36:06.745Z,63.21
2019-05-26T23:38:38.445Z,63.60
2019-05-26T23:41:10.187Z,63.35
2019-05-26T23:43:43.027Z,64.01
2019-05-26T23:46:14.429Z,64.32
2019-05-26T23:48:45.833Z,64.34
2019-05-26T23:51:17.580Z,64.49
2019-05-26T23:53:49.090Z,64.23
2019-05-26T23:56:20.433Z,64.06
2019-05-26T23:58:52.149Z,64.18
